Time;durP1;ratioP1;P1;durP2;ratioP2;P2;SDS_P1;SDS_P2;PMS_P1;PMS_P2;Temp;Humidity;BMP_temperature;BMP_pressure;BME280_temperature;BME280_humidity;BME280_pressure;Samples;Min_cycle;Max_cycle;Signal;HPM_P1;HPM_P2
2022/12/07 00:00:25;;;;;;;12.73;10.05;;;;;;;2.38;100.00;101599.50;1031424;28;20384;-80
2022/12/07 00:01:07;;;;;;;12.93;10.23;;;;;;;2.34;100.00;101592.06;1031374;28;20296;-80
2022/12/07 00:01:41;;;;;;;11.75;10.50;;;;;;;2.33;100.00;101590.41;1033281;28;20297;-80
2022/12/07 00:02:12;;;;;;;13.73;9.65;;;;;;;2.33;100.00;101590.41;1036961;28;20416;-80
2022/12/07 00:02:44;;;;;;;11.02;10.02;;;;;;;2.34;100.00;101594.69;1034509;28;20304;-80
2022/12/07 00:03:15;;;;;;;13.15;10.38;;;;;;;2.29;100.00;101591.69;1036039;28;20379;-80
2022/12/07 00:03:49;;;;;;;10.35;9.35;;;;;;;2.29;100.00;101594.31;1031245;28;20300;-80
2022/12/07 00:04:21;;;;;;;11.00;9.23;;;;;;;2.27;100.00;101591.00;1028736;28;20320;-80
2022/12/07 00:04:52;;;;;;;11.95;10.65;;;;;;;2.29;100.00;101594.31;1032001;28;20333;-80
2022/12/07 00:05:24;;;;;;;14.68;10.57;;;;;;;2.25;100.00;101590.31;1033010;28;20388;-80
2022/12/07 00:05:59;;;;;;;16.13;10.73;;;;;;;2.23;100.00;101589.63;1039212;28;20292;-80
2022/12/07 00:06:38;;;;;;;13.65;9.98;;;;;;;2.20;100.00;101590.75;1036034;28;20362;-80
2022/12/07 00:07:10;;;;;;;13.43;10.38;;;;;;;2.20;100.00;101592.53;1036142;28;20727;-80
2022/12/07 00:07:41;;;;;;;12.73;9.85;;;;;;;2.21;100.00;101594.19;1034670;28;20352;-80
2022/12/07 00:08:13;;;;;;;14.13;10.13;;;;;;;2.18;100.00;101587.41;1036883;28;20300;-80
2022/12/07 00:08:45;;;;;;;13.20;9.82;;;;;;;2.14;100.00;101597.38;1035253;28;20876;-80
2022/12/07 00:09:17;;;;;;;11.93;10.45;;;;;;;2.13;100.00;101592.25;1038105;28;20359;-80
2022/12/07 00:09:49;;;;;;;12.23;9.88;;;;;;;2.09;100.00;101594.34;1039624;28;20778;-80
2022/12/07 00:10:20;;;;;;;12.25;9.98;;;;;;;2.10;100.00;101598.63;1031552;28;20300;-80
2022/12/07 00:10:52;;;;;;;10.38;9.27;;;;;;;2.06;100.00;101586.75;1035563;28;20301;-80
2022/12/07 00:11:24;;;;;;;14.98;10.43;;;;;;;2.09;100.00;101598.78;1031008;28;20348;-79
2022/12/07 00:11:55;;;;;;;12.90;9.88;;;;;;;2.09;100.00;101594.34;1025270;28;20502;-80
2022/12/07 00:12:27;;;;;;;11.63;9.93;;;;;;;2.09;100.00;101596.97;1027060;28;20349;-80
2022/12/07 00:12:58;;;;;;;19.63;10.32;;;;;;;2.08;100.00;101597.94;1030056;28;20356;-79
2022/12/07 00:13:31;;;;;;;17.20;10.25;;;;;;;2.09;100.00;101594.34;1029624;28;20476;-80
2022/12/07 00:14:06;;;;;;;11.90;9.27;;;;;;;2.03;100.00;101594.94;1035804;28;20308;-80
2022/12/07 00:14:38;;;;;;;12.52;10.63;;;;;;;2.02;100.00;101590.66;1034694;28;20386;-80
2022/12/07 00:15:09;;;;;;;12.60;10.52;;;;;;;2.02;100.00;101601.16;1031479;28;20383;-80
2022/12/07 00:15:41;;;;;;;12.10;9.68;;;;;;;1.95;100.00;101589.56;1032067;28;20320;-80
2022/12/07 00:16:15;;;;;;;17.23;10.38;;;;;;;1.96;100.00;101596.47;1035660;28;20332;-80
2022/12/07 00:16:49;;;;;;;12.13;10.02;;;;;;;1.96;100.00;101591.22;1036165;28;20772;-80
2022/12/07 00:17:21;;;;;;;13.90;9.85;;;;;;;1.95;100.00;101591.34;1035283;28;20589;-80
2022/12/07 00:17:52;;;;;;;14.15;9.90;;;;;;;1.93;100.00;101591.50;1035505;28;20339;-80
2022/12/07 00:18:24;;;;;;;12.30;8.70;;;;;;;1.92;100.00;101592.47;1036619;28;20427;-80
2022/12/07 00:18:56;;;;;;;11.35;9.48;;;;;;;1.89;100.00;101600.59;1039109;28;20749;-80
2022/12/07 00:19:27;;;;;;;11.88;10.23;;;;;;;1.87;100.00;101592.03;1031128;28;20360;-80
2022/12/07 00:19:59;;;;;;;11.90;10.00;;;;;;;1.90;100.00;101589.13;1031118;28;20333;-80
2022/12/07 00:20:31;;;;;;;11.85;9.18;;;;;;;1.85;100.00;101588.72;1035690;28;20311;-80
2022/12/07 00:21:07;;;;;;;14.02;8.80;;;;;;;1.85;100.00;101592.19;1035425;28;20793;-80
2022/12/07 00:21:38;;;;;;;9.80;8.85;;;;;;;1.82;100.00;101597.72;1036310;28;20288;-80
2022/12/07 00:22:10;;;;;;;13.02;8.57;;;;;;;1.81;100.00;101589.97;1030771;28;20336;-80
2022/12/07 00:22:41;;;;;;;9.55;8.55;;;;;;;1.81;100.00;101589.97;1032093;28;20755;-80
2022/12/07 00:23:13;;;;;;;17.38;9.45;;;;;;;1.79;100.00;101590.13;1034877;28;20301;-80
2022/12/07 00:23:46;;;;;;;9.63;8.60;;;;;;;1.78;100.00;101591.09;1031009;28;20363;-80
2022/12/07 00:24:17;;;;;;;9.98;8.98;;;;;;;1.78;100.00;101587.66;1031167;28;20391;-80
2022/12/07 00:24:49;;;;;;;8.98;8.18;;;;;;;1.76;100.00;101592.22;1031817;28;20293;-80
2022/12/07 00:25:20;;;;;;;11.77;8.85;;;;;;;1.72;100.00;101590.84;1032534;28;20337;-80
2022/12/07 00:25:52;;;;;;;14.55;8.82;;;;;;;1.72;100.00;101590.84;1032804;28;20392;-80
2022/12/07 00:26:29;;;;;;;11.77;9.73;;;;;;;1.68;100.00;101589.47;1034476;28;20424;-80
2022/12/07 00:27:04;;;;;;;12.43;9.57;;;;;;;1.67;100.00;101587.81;1031201;28;20762;-80
2022/12/07 00:27:35;;;;;;;9.20;8.30;;;;;;;1.68;100.00;101589.47;1032058;28;20359;-80
2022/12/07 00:28:09;;;;;;;13.23;9.40;;;;;;;1.68;100.00;101585.03;1035063;28;20767;-80
2022/12/07 00:28:48;;;;;;;12.85;8.73;;;;;;;1.67;100.00;101582.56;1036425;28;20309;-80
2022/12/07 00:29:24;;;;;;;9.82;8.82;;;;;;;1.66;100.00;101591.41;1036526;28;20387;-80
2022/12/07 00:29:55;;;;;;;10.52;8.77;;;;;;;1.63;100.00;101584.59;1031331;28;20387;-80
2022/12/07 00:30:27;;;;;;;11.40;9.75;;;;;;;1.66;100.00;101583.53;1028543;28;20444;-80
2022/12/07 00:31:07;;;;;;;9.10;8.20;;;;;;;1.67;100.00;101582.56;1031995;28;20767;-80
2022/12/07 00:31:38;;;;;;;14.20;8.77;;;;;;;1.66;100.00;101578.28;1032240;28;20313;-80
2022/12/07 00:32:10;;;;;;;20.77;10.77;;;;;;;1.65;100.00;101581.88;1030971;28;20552;-80
2022/12/07 00:32:42;;;;;;;9.88;8.82;;;;;;;1.66;100.00;101583.53;1031156;28;20301;-80
2022/12/07 00:33:13;;;;;;;10.52;8.27;;;;;;;1.63;100.00;101584.59;1031274;28;20300;-80
2022/12/07 00:33:46;;;;;;;14.60;9.38;;;;;;;1.63;100.00;101586.41;1031452;28;20375;-80
2022/12/07 00:34:19;;;;;;;10.57;8.90;;;;;;;1.64;100.00;101582.81;1031994;28;20325;-80
2022/12/07 00:34:51;;;;;;;9.85;8.88;;;;;;;1.62;100.00;101577.69;1030879;28;20302;-79
2022/12/07 00:35:22;;;;;;;9.32;8.35;;;;;;;1.64;100.00;101577.56;1030645;28;21147;-80
2022/12/07 00:35:58;;;;;;;9.90;8.85;;;;;;;1.66;100.00;101581.72;1031711;28;20298;-79
2022/12/07 00:36:29;;;;;;;10.02;8.95;;;;;;;1.65;100.00;101577.44;1035351;28;20413;-80
2022/12/07 00:37:01;;;;;;;12.18;8.40;;;;;;;1.64;100.00;101578.38;1034914;28;20315;-80
2022/12/07 00:37:33;;;;;;;10.40;9.18;;;;;;;1.66;100.00;101576.47;1033888;28;21248;-80
2022/12/07 00:38:04;;;;;;;10.98;8.10;;;;;;;1.65;100.00;101579.25;1031930;28;20325;-80
2022/12/07 00:38:37;;;;;;;11.95;8.80;;;;;;;1.64;100.00;101577.56;1034746;28;20319;-80
2022/12/07 00:39:09;;;;;;;9.55;8.60;;;;;;;1.64;100.00;101578.38;1031626;28;20367;-80
2022/12/07 00:39:40;;;;;;;8.82;7.88;;;;;;;1.64;100.00;101577.56;1035296;28;20436;-80
2022/12/07 00:40:12;;;;;;;9.40;8.45;;;;;;;1.69;100.00;101578.00;1035631;28;20315;-79
2022/12/07 00:40:43;;;;;;;11.82;7.93;;;;;;;1.71;100.00;101573.44;1030947;28;20302;-80
2022/12/07 00:41:20;;;;;;;10.38;9.23;;;;;;;1.66;100.00;101581.72;1026976;28;20313;-80
2022/12/07 00:41:52;;;;;;;10.55;8.65;;;;;;;1.66;100.00;101575.66;1028363;28;20489;-80
2022/12/07 00:42:23;;;;;;;12.52;8.85;;;;;;;1.66;100.00;101573.84;1033603;28;20313;-80
2022/12/07 00:42:55;;;;;;;10.80;8.60;;;;;;;1.62;100.00;101575.06;1038645;28;20307;-80
2022/12/07 00:43:26;;;;;;;13.52;8.60;;;;;;;1.57;100.00;101565.97;1035167;28;20387;-80
2022/12/07 00:43:58;;;;;;;11.70;8.30;;;;;;;1.60;100.00;101570.94;1032880;28;20301;-80
2022/12/07 00:44:30;;;;;;;8.52;7.18;;;;;;;1.62;100.00;101566.38;1034924;28;20380;-80
2022/12/07 00:45:01;;;;;;;10.75;8.93;;;;;;;1.58;100.00;101567.63;1032243;28;20368;-80
2022/12/07 00:45:32;;;;;;;13.20;8.93;;;;;;;1.57;100.00;101579.09;1034865;28;21137;-80
2022/12/07 00:46:04;;;;;;;12.93;8.68;;;;;;;1.57;100.00;101566.78;1034891;28;20301;-80
2022/12/07 00:46:36;;;;;;;10.18;7.95;;;;;;;1.54;100.00;101573.16;1035944;28;20311;-80
2022/12/07 00:47:07;;;;;;;14.98;8.25;;;;;;;1.53;100.00;101568.03;1030569;28;20329;-80
2022/12/07 00:47:39;;;;;;;9.73;8.40;;;;;;;1.53;100.00;101561.00;1027008;28;20638;-80
2022/12/07 00:48:10;;;;;;;17.25;9.15;;;;;;;1.54;100.00;101570.53;1027665;28;20298;-80
2022/12/07 00:48:42;;;;;;;10.10;8.18;;;;;;;1.52;100.00;101569.84;1032200;28;20289;-80
2022/12/07 00:49:14;;;;;;;9.85;7.82;;;;;;;1.50;100.00;101565.69;1039112;28;20372;-80
2022/12/07 00:49:45;;;;;;;9.57;8.23;;;;;;;1.49;100.00;101569.28;1038996;28;20377;-80
2022/12/07 00:50:17;;;;;;;11.45;7.75;;;;;;;1.51;100.00;101568.19;1034905;28;20305;-80
2022/12/07 00:50:49;;;;;;;9.82;7.82;;;;;;;1.52;100.00;101566.38;1034971;28;20391;-80
2022/12/07 00:51:23;;;;;;;10.07;8.57;;;;;;;1.53;100.00;101561.00;1037871;28;20332;-80
2022/12/07 00:51:55;;;;;;;12.00;7.70;;;;;;;1.54;100.00;101565.28;1040457;28;20303;-80
2022/12/07 00:52:27;;;;;;;10.10;7.25;;;;;;;1.56;100.00;101565.13;1036486;28;20850;-80
2022/12/07 00:52:58;;;;;;;11.05;8.30;;;;;;;1.51;100.00;101562.94;1039028;28;20335;-80
2022/12/07 00:53:30;;;;;;;12.10;7.88;;;;;;;1.54;100.00;101562.66;1039283;28;20299;-80
2022/12/07 00:54:08;;;;;;;9.80;7.15;;;;;;;1.55;100.00;101561.69;1034868;28;20412;-80
2022/12/07 00:54:40;;;;;;;12.02;7.50;;;;;;;1.55;100.00;101556.44;1035475;28;20806;-80
2022/12/07 00:55:11;;;;;;;10.13;8.32;;;;;;;1.60;100.00;101561.25;1030562;28;20383;-80
2022/12/07 00:55:43;;;;;;;13.25;7.88;;;;;;;1.60;100.00;101560.44;1027342;28;20947;-80
2022/12/07 00:56:17;;;;;;;8.50;7.60;;;;;;;1.53;100.00;101558.38;1026989;28;20302;-80
2022/12/07 00:56:49;;;;;;;8.18;7.22;;;;;;;1.54;100.00;101562.66;1023540;28;20334;-80
2022/12/07 00:57:20;;;;;;;13.38;8.20;;;;;;;1.50;100.00;101563.91;1028544;28;20298;-80
2022/12/07 00:57:52;;;;;;;10.05;7.50;;;;;;;1.49;100.00;101562.25;1035939;28;20390;-80
2022/12/07 00:58:23;;;;;;;7.95;6.95;;;;;;;1.54;100.00;101570.53;1034476;28;20424;-80
2022/12/07 00:59:03;;;;;;;8.85;7.55;;;;;;;1.53;100.00;101565.41;1035512;28;20307;-80
2022/12/07 00:59:34;;;;;;;8.32;7.32;;;;;;;1.50;100.00;101566.53;1034827;28;20479;-80
2022/12/07 01:00:06;;;;;;;10.18;7.63;;;;;;;1.51;100.00;101557.69;1035046;28;20517;-80
2022/12/07 01:00:40;;;;;;;8.40;7.43;;;;;;;1.53;100.00;101560.16;1032773;28;20659;-80
2022/12/07 01:01:12;;;;;;;11.68;7.65;;;;;;;1.50;100.00;101556.03;1031567;28;20881;-80
2022/12/07 01:01:44;;;;;;;12.50;7.00;;;;;;;1.51;100.00;101557.69;1026945;28;20298;-80
2022/12/07 01:02:15;;;;;;;10.30;6.85;;;;;;;1.51;100.00;101560.31;1023599;28;20809;-80
2022/12/07 01:02:47;;;;;;;10.80;7.38;;;;;;;1.52;100.00;101561.97;1027240;28;20819;-80
2022/12/07 01:03:19;;;;;;;13.20;8.05;;;;;;;1.51;100.00;101559.47;1031435;28;20301;-80
2022/12/07 01:03:51;;;;;;;13.50;7.95;;;;;;;1.51;100.00;101557.69;1035709;28;20328;-80
2022/12/07 01:04:22;;;;;;;10.85;7.05;;;;;;;1.53;100.00;101554.91;1039018;28;20361;-80
2022/12/07 01:04:54;;;;;;;10.93;7.13;;;;;;;1.53;100.00;101558.38;1034811;28;20380;-80
2022/12/07 01:05:25;;;;;;;10.70;7.72;;;;;;;1.52;100.00;101558.50;1035380;28;20296;-80
2022/12/07 01:05:57;;;;;;;20.67;8.82;;;;;;;1.50;100.00;101557.81;1035311;28;20936;-80
2022/12/07 01:06:29;;;;;;;11.45;7.93;;;;;;;1.48;100.00;101557.97;1035019;28;20375;-80
2022/12/07 01:07:00;;;;;;;12.98;7.20;;;;;;;1.47;100.00;101556.31;1033695;28;20368;-80
2022/12/07 01:07:32;;;;;;;11.55;7.22;;;;;;;1.46;100.00;101559.91;1031073;28;20297;-80
2022/12/07 01:08:04;;;;;;;11.40;7.15;;;;;;;1.44;100.00;101555.75;1025798;28;20361;-80
2022/12/07 01:08:35;;;;;;;11.77;7.07;;;;;;;1.44;100.00;101555.75;1024188;28;20350;-79
2022/12/07 01:09:07;;;;;;;8.68;7.07;;;;;;;1.46;100.00;101562.53;1027443;28;20298;-79
2022/12/07 01:09:38;;;;;;;12.35;7.40;;;;;;;1.45;100.00;101557.41;1031528;28;20688;-80
2022/12/07 01:10:10;;;;;;;7.75;6.38;;;;;;;1.44;100.00;101556.59;1035420;28;20375;-80
2022/12/07 01:10:41;;;;;;;8.25;7.10;;;;;;;1.47;100.00;101556.31;1028781;28;20313;-80
2022/12/07 01:11:16;;;;;;;8.77;6.78;;;;;;;1.45;100.00;101553.00;1026734;28;20309;-80
2022/12/07 01:11:47;;;;;;;8.70;6.70;;;;;;;1.45;100.00;101560.03;1024050;28;20362;-80
2022/12/07 01:12:19;;;;;;;8.60;6.57;;;;;;;1.45;100.00;101553.00;1023208;28;20338;-80
2022/12/07 01:12:50;;;;;;;7.55;6.75;;;;;;;1.44;100.00;101553.13;1028511;28;20441;-80
2022/12/07 01:13:22;;;;;;;8.88;6.85;;;;;;;1.45;100.00;101562.66;1030382;28;20311;-79
2022/12/07 01:13:55;;;;;;;7.78;6.65;;;;;;;1.45;100.00;101557.41;1031804;28;20457;-80
2022/12/07 01:14:27;;;;;;;9.88;7.28;;;;;;;1.46;100.00;101553.81;1034958;28;20302;-80
2022/12/07 01:14:58;;;;;;;10.80;6.80;;;;;;;1.43;100.00;101559.34;1035209;28;20495;-80
2022/12/07 01:15:30;;;;;;;8.43;7.05;;;;;;;1.44;100.00;101555.75;1038907;28;20287;-80
2022/12/07 01:16:04;;;;;;;12.63;7.18;;;;;;;1.43;100.00;101554.09;1034922;28;20292;-80
2022/12/07 01:16:36;;;;;;;10.63;6.85;;;;;;;1.39;100.00;101553.56;1040040;28;20793;-80
2022/12/07 01:17:07;;;;;;;12.25;5.85;;;;;;;1.42;100.00;101558.53;1043030;28;20365;-80
2022/12/07 01:17:39;;;;;;;8.18;6.57;;;;;;;1.41;100.00;101558.66;1039078;28;20693;-80
2022/12/07 01:18:11;;;;;;;8.27;6.43;;;;;;;1.42;100.00;101562.94;1035045;28;20320;-80
2022/12/07 01:18:46;;;;;;;9.00;7.15;;;;;;;1.44;100.00;101564.47;1034629;28;20304;-80
2022/12/07 01:19:17;;;;;;;9.05;6.40;;;;;;;1.43;100.00;101560.19;1031707;28;20380;-80
2022/12/07 01:19:49;;;;;;;9.13;6.40;;;;;;;1.44;100.00;101561.84;1035909;28;20387;-80
2022/12/07 01:20:20;;;;;;;10.93;6.65;;;;;;;1.42;100.00;101563.78;1039364;28;20304;-80
2022/12/07 01:21:07;;;;;;;11.77;7.18;;;;;;;1.40;100.00;101560.47;1043021;28;20759;-80
2022/12/07 01:21:39;;;;;;;10.27;6.03;;;;;;;1.42;100.00;101563.78;1042919;28;20299;-80
2022/12/07 01:22:10;;;;;;;7.93;6.38;;;;;;;1.45;100.00;101557.41;1038033;28;20331;-80
2022/12/07 01:22:43;;;;;;;8.80;6.28;;;;;;;1.42;100.00;101558.53;1035043;28;20328;-80
2022/12/07 01:23:14;;;;;;;8.50;6.00;;;;;;;1.44;100.00;101561.00;1034960;28;20757;-80
2022/12/07 01:23:46;;;;;;;10.35;6.65;;;;;;;1.41;100.00;101563.91;1035322;28;20367;-80
2022/12/07 01:24:18;;;;;;;11.00;6.03;;;;;;;1.39;100.00;101557.97;1038503;28;20725;-80
2022/12/07 01:24:49;;;;;;;7.70;6.18;;;;;;;1.38;100.00;101557.16;1035021;28;21134;-80
2022/12/07 01:25:21;;;;;;;6.70;5.93;;;;;;;1.38;100.00;101557.16;1034611;28;20387;-80
2022/12/07 01:26:00;;;;;;;6.43;5.65;;;;;;;1.35;100.00;101562.66;1031131;28;20763;-80
2022/12/07 01:26:31;;;;;;;8.63;5.90;;;;;;;1.38;100.00;101562.41;1031666;28;20348;-80
2022/12/07 01:27:03;;;;;;;9.73;5.95;;;;;;;1.35;100.00;101562.66;1034620;28;20300;-80
2022/12/07 01:27:35;;;;;;;8.05;5.88;;;;;;;1.39;100.00;101565.84;1031699;28;20480;-80
2022/12/07 01:28:06;;;;;;;7.80;5.43;;;;;;;1.36;100.00;101559.06;1034307;28;20339;-80
2022/12/07 01:28:38;;;;;;;8.77;5.63;;;;;;;1.37;100.00;101566.00;1037017;28;20438;-80
2022/12/07 01:29:10;;;;;;;10.70;5.55;;;;;;;1.37;100.00;101558.13;1032405;28;20316;-80
2022/12/07 01:29:42;;;;;;;9.52;5.63;;;;;;;1.39;100.00;101565.84;1031040;28;20672;-80
2022/12/07 01:30:13;;;;;;;6.63;5.40;;;;;;;1.38;100.00;101556.31;1026845;28;20285;-80
2022/12/07 01:31:03;;;;;;;13.32;6.28;;;;;;;1.36;100.00;101556.44;1026562;28;20705;-80
2022/12/07 01:31:34;;;;;;;11.85;5.15;;;;;;;1.37;100.00;101562.50;1029619;28;20316;-80
2022/12/07 01:32:06;;;;;;;7.78;5.68;;;;;;;1.33;100.00;101559.34;1032580;28;20738;-80
2022/12/07 01:32:38;;;;;;;10.13;5.90;;;;;;;1.35;100.00;101561.81;1030940;28;20356;-80
2022/12/07 01:33:09;;;;;;;9.43;5.88;;;;;;;1.35;100.00;101560.03;1031150;28;21083;-80
2022/12/07 01:33:42;;;;;;;10.27;6.07;;;;;;;1.36;100.00;101561.69;1033231;28;20398;-80
2022/12/07 01:34:14;;;;;;;9.25;5.57;;;;;;;1.35;100.00;101562.66;1027677;28;20301;-80
2022/12/07 01:34:47;;;;;;;9.27;5.05;;;;;;;1.37;100.00;101563.38;1031099;28;20840;-80
2022/12/07 01:35:19;;;;;;;7.43;5.63;;;;;;;1.36;100.00;101555.59;1035260;28;20304;-80
2022/12/07 01:35:51;;;;;;;5.47;4.57;;;;;;;1.37;100.00;101557.25;1035722;28;20304;-80
2022/12/07 01:36:24;;;;;;;5.65;5.05;;;;;;;1.38;100.00;101558.94;1028259;28;20381;-80
2022/12/07 01:36:56;;;;;;;10.45;4.85;;;;;;;1.36;100.00;101560.84;1030722;28;20340;-80
2022/12/07 01:37:28;;;;;;;7.97;5.03;;;;;;;1.37;100.00;101563.38;1031289;28;20344;-80
2022/12/07 01:37:59;;;;;;;6.88;4.88;;;;;;;1.31;100.00;101561.28;1034811;28;20303;-80
2022/12/07 01:38:31;;;;;;;7.78;5.22;;;;;;;1.34;100.00;101561.00;1035283;28;20531;-80
2022/12/07 01:39:05;;;;;;;6.95;5.07;;;;;;;1.29;100.00;101568.47;1035414;28;20336;-80
2022/12/07 01:39:37;;;;;;;9.93;5.72;;;;;;;1.29;100.00;101557.97;1038757;28;20425;-80
2022/12/07 01:40:09;;;;;;;7.43;5.63;;;;;;;1.28;100.00;101561.56;1034979;28;20316;-80
2022/12/07 01:40:41;;;;;;;8.50;5.63;;;;;;;1.32;100.00;101568.19;1031194;28;20870;-80
2022/12/07 01:41:14;;;;;;;8.48;4.68;;;;;;;1.31;100.00;101560.44;1030340;28;20370;-80
2022/12/07 01:41:45;;;;;;;7.40;5.32;;;;;;;1.35;100.00;101561.81;1035561;28;20300;-80
2022/12/07 01:42:18;;;;;;;13.65;4.78;;;;;;;1.35;100.00;101562.66;1038676;28;20334;-80
2022/12/07 01:42:50;;;;;;;8.43;5.43;;;;;;;1.33;100.00;101558.50;1034522;28;20309;-80
2022/12/07 01:43:23;;;;;;;5.25;4.60;;;;;;;1.34;100.00;101555.75;1035330;28;20391;-80
2022/12/07 01:44:15;;;;;;;10.30;4.95;;;;;;;1.33;100.00;101561.97;1030886;28;20306;-80
2022/12/07 01:45:05;;;;;;;;;;;;;;;1.36;100.00;101563.47;1034212;28;20790;-80
2022/12/07 01:45:39;;;;;;;11.55;4.03;;;;;;;1.33;100.00;101558.50;1039073;28;20011;-80
2022/12/07 01:46:11;;;;;;;5.88;3.63;;;;;;;1.35;100.00;101562.66;1043105;28;20294;-80
2022/12/07 01:46:47;;;;;;;6.00;3.60;;;;;;;1.32;100.00;101570.81;1038966;28;20662;-80
2022/12/07 01:47:19;;;;;;;4.53;3.60;;;;;;;1.31;100.00;101566.53;1038407;28;20304;-79
2022/12/07 01:47:53;;;;;;;4.57;3.33;;;;;;;1.33;100.00;101563.75;1039818;28;20303;-80
2022/12/07 01:48:36;;;;;;;8.73;3.78;;;;;;;1.34;100.00;101560.16;1040307;28;20788;-80
2022/12/07 01:49:11;;;;;;;11.45;5.13;;;;;;;1.32;100.00;101570.81;1034708;28;20358;-80
2022/12/07 01:49:48;;;;;;;5.80;3.17;;;;;;;1.36;100.00;101574.81;1034659;28;20328;-80
2022/12/07 01:50:21;;;;;;;11.55;5.55;;;;;;;1.35;100.00;101572.31;1037632;28;20303;-80
2022/12/07 01:50:56;;;;;;;7.43;3.97;;;;;;;1.34;100.00;101566.25;1038940;28;20293;-80
2022/12/07 01:51:28;;;;;;;5.30;3.65;;;;;;;1.35;100.00;101578.41;1042844;28;20859;-80
2022/12/07 01:52:11;;;;;;;6.32;4.57;;;;;;;1.37;100.00;101575.63;1037811;28;20315;-80
2022/12/07 01:52:44;;;;;;;6.00;3.53;;;;;;;1.33;100.00;101564.59;1031042;28;20477;-80
2022/12/07 01:53:16;;;;;;;3.95;3.40;;;;;;;1.32;100.00;101573.44;1026513;28;20353;-80
2022/12/07 01:53:48;;;;;;;4.72;3.97;;;;;;;1.32;100.00;101573.44;1029087;28;20871;-80
2022/12/07 01:54:20;;;;;;;9.13;3.75;;;;;;;1.33;100.00;101572.47;1031605;28;20748;-80
2022/12/07 01:54:57;;;;;;;4.35;3.00;;;;;;;1.38;100.00;101572.91;1028241;28;20511;-80
2022/12/07 01:55:29;;;;;;;8.38;3.10;;;;;;;1.35;100.00;101575.78;1030612;28;20679;-80
2022/12/07 01:56:01;;;;;;;8.65;3.70;;;;;;;1.37;100.00;101568.63;1030850;28;20316;-80
2022/12/07 01:56:32;;;;;;;7.57;3.35;;;;;;;1.34;100.00;101576.75;1032078;28;20293;-79
2022/12/07 01:57:06;;;;;;;12.35;4.93;;;;;;;1.34;100.00;101571.50;1030417;28;20351;-80
2022/12/07 01:57:41;;;;;;;6.57;3.33;;;;;;;1.34;100.00;101579.38;1027412;28;20426;-80
2022/12/07 01:58:14;;;;;;;6.82;3.72;;;;;;;1.32;100.00;101572.59;1033940;28;20830;-79
2022/12/07 01:58:47;;;;;;;12.15;3.13;;;;;;;1.32;100.00;101576.06;1031947;28;20411;-80
2022/12/07 01:59:20;;;;;;;4.85;3.33;;;;;;;1.33;100.00;101569.84;1031979;28;20297;-79
2022/12/07 01:59:52;;;;;;;7.00;3.35;;;;;;;1.30;100.00;101570.13;1034460;28;20392;-80
2022/12/07 02:00:23;;;;;;;9.55;3.70;;;;;;;1.28;100.00;101572.06;1034615;28;20600;-80
2022/12/07 02:00:55;;;;;;;7.40;3.08;;;;;;;1.27;100.00;101567.78;1034707;28;20675;-80
2022/12/07 02:01:26;;;;;;;4.72;3.50;;;;;;;1.27;100.00;101565.16;1035083;28;20311;-79
2022/12/07 02:01:58;;;;;;;7.20;2.85;;;;;;;1.24;100.00;101568.88;1033736;28;20789;-79
2022/12/07 02:02:33;;;;;;;6.03;3.15;;;;;;;1.23;100.00;101566.41;1038393;28;21834;-79
2022/12/07 02:03:08;;;;;;;7.90;4.13;;;;;;;1.24;100.00;101560.19;1034947;28;20802;-79
2022/12/07 02:03:42;;;;;;;4.20;3.33;;;;;;;1.20;100.00;101564.88;1030399;28;20344;-80
2022/12/07 02:04:14;;;;;;;8.98;3.67;;;;;;;1.25;100.00;101561.84;1028250;28;20381;-80
2022/12/07 02:04:46;;;;;;;18.30;3.30;;;;;;;1.28;100.00;101561.56;1031732;28;20379;-79
2022/12/07 02:05:18;;;;;;;6.32;2.67;;;;;;;1.26;100.00;101562.66;1035629;28;20285;-80
2022/12/07 02:05:50;;;;;;;6.63;3.53;;;;;;;1.25;100.00;101561.84;1039653;28;20319;-79
2022/12/07 02:06:24;;;;;;;10.82;3.75;;;;;;;1.25;100.00;101561.84;1034446;28;20755;-80
2022/12/07 02:06:57;;;;;;;4.93;2.90;;;;;;;1.24;100.00;101565.44;1026525;28;20329;-79
2022/12/07 02:07:29;;;;;;;4.03;2.80;;;;;;;1.25;100.00;101561.84;1027921;28;20294;-79
2022/12/07 02:08:01;;;;;;;4.47;3.05;;;;;;;1.26;100.00;101562.66;1032813;28;20317;-79
2022/12/07 02:08:34;;;;;;;6.80;3.58;;;;;;;1.26;100.00;101565.28;1034707;28;20297;-79
2022/12/07 02:09:05;;;;;;;6.35;3.03;;;;;;;1.24;100.00;101558.38;1030316;28;21729;-79
2022/12/07 02:09:37;;;;;;;5.90;3.17;;;;;;;1.23;100.00;101555.91;1031508;28;20981;-79
2022/12/07 02:10:17;;;;;;;7.78;3.00;;;;;;;1.25;100.00;101551.34;1034284;28;20386;-79
2022/12/07 02:10:49;;;;;;;5.40;3.20;;;;;;;1.23;100.00;101548.03;1036172;28;20304;-79
2022/12/07 02:11:21;;;;;;;5.25;2.83;;;;;;;1.26;100.00;101553.00;1037997;28;20046;-79
2022/12/07 02:11:53;;;;;;;7.22;3.58;;;;;;;1.26;100.00;101547.75;1032418;28;20309;-79
2022/12/07 02:12:25;;;;;;;9.35;2.72;;;;;;;1.26;100.00;101553.00;1034928;28;20650;-79
2022/12/07 02:13:04;;;;;;;3.75;2.72;;;;;;;1.25;100.00;101551.34;1034400;28;20304;-79
2022/12/07 02:13:38;;;;;;;10.77;2.80;;;;;;;1.23;100.00;101545.41;992621;28;1098273;-79
2022/12/07 02:14:09;;;;;;;8.18;2.47;;;;;;;1.22;100.00;101547.19;1026340;28;20325;-79
2022/12/07 02:14:41;;;;;;;16.13;4.63;;;;;;;1.23;100.00;101553.28;1028464;28;20361;-79
2022/12/07 02:15:13;;;;;;;7.30;3.17;;;;;;;1.24;100.00;101544.44;1031409;28;20376;-79
2022/12/07 02:15:59;;;;;;;6.35;2.65;;;;;;;1.22;100.00;101547.19;1034733;28;20332;-79
2022/12/07 02:17:02;;;;;;;9.35;3.05;;;;;;;1.19;100.00;101555.34;1037448;28;20370;-79
2022/12/07 02:17:40;;;;;;;10.15;2.95;;;;;;;1.20;100.00;101553.56;1030734;28;20728;-79
2022/12/07 02:18:21;;;;;;;11.48;2.78;;;;;;;1.19;100.00;101546.66;1031468;28;20432;-79
2022/12/07 02:19:07;;;;;;;10.73;3.20;;;;;;;1.20;100.00;101543.88;1034773;28;20296;-79
2022/12/07 02:20:02;;;;;;;6.35;2.50;;;;;;;1.17;100.00;101538.91;1038437;28;20299;-79
2022/12/07 02:20:53;;;;;;;5.75;2.65;;;;;;;1.13;100.00;101539.34;1036748;28;20670;-79
2022/12/07 02:21:36;;;;;;;6.80;2.03;;;;;;;1.13;100.00;101536.72;1034566;28;20297;-79
2022/12/07 02:22:10;;;;;;;8.52;2.65;;;;;;;1.10;100.00;101542.25;1035209;28;20297;-79
2022/12/07 02:23:18;;;;;;;5.57;3.38;;;;;;;1.10;100.00;101543.06;1034246;28;20312;-79
2022/12/07 02:24:38;;;;;;;6.63;2.47;;;;;;;1.14;100.00;101543.63;1034999;28;20292;-79
2022/12/07 02:25:22;;;;;;;4.65;2.22;;;;;;;1.12;100.00;101541.13;1025477;28;20754;-79
2022/12/07 02:26:02;;;;;;;4.25;2.17;;;;;;;1.11;100.00;101541.28;1030513;28;20717;-79
2022/12/07 02:26:48;;;;;;;9.75;2.30;;;;;;;1.14;100.00;101548.84;1026476;28;20302;-79
2022/12/07 02:27:46;;;;;;;7.03;2.08;;;;;;;1.10;100.00;101552.72;1025377;28;20078;-79
2022/12/07 02:28:31;;;;;;;4.15;2.08;;;;;;;1.08;100.00;101554.63;1025580;28;20389;-79
2022/12/07 02:29:20;;;;;;;4.85;1.92;;;;;;;1.03;100.00;101552.44;1026571;28;20298;-79
2022/12/07 02:30:05;;;;;;;2.30;2.10;;;;;;;1.09;100.00;101553.66;1027262;28;20388;-79
2022/12/07 02:30:42;;;;;;;7.05;2.25;;;;;;;1.00;100.00;101547.44;1031738;28;20309;-79
2022/12/07 02:31:20;;;;;;;4.95;1.88;;;;;;;1.00;100.00;101557.13;1034449;28;20399;-79
2022/12/07 02:31:58;;;;;;;7.40;2.60;;;;;;;1.01;100.00;101558.78;1034788;28;20297;-79
2022/12/07 02:32:30;;;;;;;5.10;2.20;;;;;;;1.01;100.00;101559.59;1035089;28;20296;-79
2022/12/07 02:33:08;;;;;;;5.15;2.50;;;;;;;1.03;100.00;101560.28;1040986;28;20382;-79
2022/12/07 02:33:50;;;;;;;5.32;2.67;;;;;;;1.03;100.00;101556.84;1038584;28;20875;-79
2022/12/07 02:34:29;;;;;;;8.57;2.55;;;;;;;1.03;100.00;101562.09;1034785;28;20312;-80
2022/12/07 02:35:36;;;;;;;8.25;2.72;;;;;;;1.02;100.00;101563.06;1034916;28;20311;-79
2022/12/07 02:36:12;;;;;;;3.15;1.90;;;;;;;1.01;100.00;101559.59;1030608;28;20380;-79
2022/12/07 02:36:47;;;;;;;4.72;2.28;;;;;;;0.98;100.00;101564.28;1026641;28;20375;-79
2022/12/07 02:37:32;;;;;;;5.63;2.55;;;;;;;0.98;100.00;101559.03;1022647;28;20381;-79
2022/12/07 02:38:26;;;;;;;3.25;2.47;;;;;;;0.97;100.00;101558.22;1029443;28;20704;-79
2022/12/07 02:39:23;;;;;;;4.03;2.33;;;;;;;1.01;100.00;101561.41;1031275;28;20332;-79